sensor_id;sensor_type;location;lat;lon;timestamp;pressure;altitude;pressure_sealevel;temperature;humidity
41260;BME280;26993;48.958;9.330;2022-07-12T00:00:19;99089.22;;;16.34;85.31
41260;BME280;26993;48.958;9.330;2022-07-12T00:03:06;99093.44;;;16.42;84.82
41260;BME280;26993;48.958;9.330;2022-07-12T00:05:53;99096.28;;;16.26;85.73
41260;BME280;26993;48.958;9.330;2022-07-12T00:08:41;99103.44;;;16.09;86.39
41260;BME280;26993;48.958;9.330;2022-07-12T00:11:28;99106.75;;;16.22;86.17
41260;BME280;26993;48.958;9.330;2022-07-12T00:14:15;99111.78;;;16.32;85.27
41260;BME280;26993;48.958;9.330;2022-07-12T00:17:02;99107.09;;;15.95;87.11
41260;BME280;26993;48.958;9.330;2022-07-12T00:19:50;99112.13;;;16.09;86.87
41260;BME280;26993;48.958;9.330;2022-07-12T00:22:37;99111.25;;;16.09;86.83
41260;BME280;26993;48.958;9.330;2022-07-12T00:25:25;99106.84;;;16.15;86.39
41260;BME280;26993;48.958;9.330;2022-07-12T00:28:12;99111.94;;;16.22;86.49
41260;BME280;26993;48.958;9.330;2022-07-12T00:30:59;99105.00;;;16.21;86.34
41260;BME280;26993;48.958;9.330;2022-07-12T00:33:46;99102.28;;;16.30;85.44
41260;BME280;26993;48.958;9.330;2022-07-12T00:36:33;99097.22;;;16.22;85.91
41260;BME280;26993;48.958;9.330;2022-07-12T00:39:19;99107.56;;;16.25;85.54
41260;BME280;26993;48.958;9.330;2022-07-12T00:42:07;99100.69;;;16.21;85.29
41260;BME280;26993;48.958;9.330;2022-07-12T00:44:54;99102.31;;;16.28;84.90
41260;BME280;26993;48.958;9.330;2022-07-12T00:47:42;99101.47;;;16.26;84.79
41260;BME280;26993;48.958;9.330;2022-07-12T00:50:30;99093.75;;;16.22;84.79
41260;BME280;26993;48.958;9.330;2022-07-12T00:53:17;99099.84;;;16.19;85.17
41260;BME280;26993;48.958;9.330;2022-07-12T00:56:08;99095.59;;;16.15;85.11
41260;BME280;26993;48.958;9.330;2022-07-12T00:58:57;99091.97;;;16.27;84.55
41260;BME280;26993;48.958;9.330;2022-07-12T01:01:43;99088.53;;;16.23;84.78
41260;BME280;26993;48.958;9.330;2022-07-12T01:04:31;99098.78;;;16.32;84.05
41260;BME280;26993;48.958;9.330;2022-07-12T01:07:19;99093.69;;;16.26;84.16
41260;BME280;26993;48.958;9.330;2022-07-12T01:10:07;99099.00;;;16.18;84.56
41260;BME280;26993;48.958;9.330;2022-07-12T01:12:57;99103.28;;;16.20;84.41
41260;BME280;26993;48.958;9.330;2022-07-12T01:15:47;99100.66;;;16.23;84.01
41260;BME280;26993;48.958;9.330;2022-07-12T01:18:35;99102.47;;;16.17;84.37
41260;BME280;26993;48.958;9.330;2022-07-12T01:21:22;99096.34;;;16.23;83.77
41260;BME280;26993;48.958;9.330;2022-07-12T01:24:11;99099.81;;;16.21;83.92
41260;BME280;26993;48.958;9.330;2022-07-12T01:26:58;99101.50;;;16.25;83.70
41260;BME280;26993;48.958;9.330;2022-07-12T01:29:45;99104.03;;;16.29;83.99
41260;BME280;26993;48.958;9.330;2022-07-12T01:32:32;99104.97;;;16.27;83.99
41260;BME280;26993;48.958;9.330;2022-07-12T01:35:20;99096.22;;;16.31;84.16
41260;BME280;26993;48.958;9.330;2022-07-12T01:38:07;99107.78;;;16.10;85.75
41260;BME280;26993;48.958;9.330;2022-07-12T01:40:56;99113.97;;;15.98;86.67
41260;BME280;26993;48.958;9.330;2022-07-12T01:43:42;99107.88;;;16.02;86.65
41260;BME280;26993;48.958;9.330;2022-07-12T01:46:29;99112.47;;;15.78;87.03
41260;BME280;26993;48.958;9.330;2022-07-12T01:49:16;99097.19;;;15.52;88.47
41260;BME280;26993;48.958;9.330;2022-07-12T01:52:04;99109.50;;;15.34;89.50
41260;BME280;26993;48.958;9.330;2022-07-12T01:54:51;99110.31;;;15.38;89.31
41260;BME280;26993;48.958;9.330;2022-07-12T01:57:41;99106.00;;;15.38;89.50
41260;BME280;26993;48.958;9.330;2022-07-12T02:00:29;99106.75;;;15.48;89.37
41260;BME280;26993;48.958;9.330;2022-07-12T02:03:17;99102.38;;;15.55;88.59
41260;BME280;26993;48.958;9.330;2022-07-12T02:06:04;99094.56;;;15.53;88.37
41260;BME280;26993;48.958;9.330;2022-07-12T02:08:51;99098.28;;;15.31;89.12
41260;BME280;26993;48.958;9.330;2022-07-12T02:11:38;99099.22;;;15.27;89.11
41260;BME280;26993;48.958;9.330;2022-07-12T02:14:26;99100.16;;;15.19;89.89
41260;BME280;26993;48.958;9.330;2022-07-12T02:17:13;99099.16;;;15.31;89.32
41260;BME280;26993;48.958;9.330;2022-07-12T02:20:00;99108.78;;;15.20;89.37
41260;BME280;26993;48.958;9.330;2022-07-12T02:22:47;99103.63;;;15.17;89.82
41260;BME280;26993;48.958;9.330;2022-07-12T02:25:33;99102.03;;;15.05;90.05
41260;BME280;26993;48.958;9.330;2022-07-12T02:28:20;99105.47;;;15.04;89.74
41260;BME280;26993;48.958;9.330;2022-07-12T02:31:09;99102.94;;;14.98;89.99
41260;BME280;26993;48.958;9.330;2022-07-12T02:33:56;99111.66;;;14.90;90.30
41260;BME280;26993;48.958;9.330;2022-07-12T02:36:43;99109.94;;;14.93;90.43
41260;BME280;26993;48.958;9.330;2022-07-12T02:39:29;99103.81;;;14.97;90.49
41260;BME280;26993;48.958;9.330;2022-07-12T02:42:16;99103.09;;;14.82;90.51
41260;BME280;26993;48.958;9.330;2022-07-12T02:45:04;99104.75;;;14.86;90.79
41260;BME280;26993;48.958;9.330;2022-07-12T02:47:52;99101.34;;;14.81;90.12
41260;BME280;26993;48.958;9.330;2022-07-12T02:50:39;99101.56;;;14.53;91.27
41260;BME280;26993;48.958;9.330;2022-07-12T02:53:26;99108.53;;;14.43;92.13
41260;BME280;26993;48.958;9.330;2022-07-12T02:56:13;99096.41;;;14.46;91.95
41260;BME280;26993;48.958;9.330;2022-07-12T02:59:00;99106.75;;;14.50;91.73
41260;BME280;26993;48.958;9.330;2022-07-12T03:01:47;99107.63;;;14.44;91.54
41260;BME280;26993;48.958;9.330;2022-07-12T03:04:35;99105.09;;;14.41;91.86
41260;BME280;26993;48.958;9.330;2022-07-12T03:07:28;99107.69;;;14.41;91.60
41260;BME280;26993;48.958;9.330;2022-07-12T03:10:14;99109.41;;;14.39;91.24
41260;BME280;26993;48.958;9.330;2022-07-12T03:13:02;99115.66;;;14.06;93.20
41260;BME280;26993;48.958;9.330;2022-07-12T03:15:49;99112.28;;;13.94;94.12
41260;BME280;26993;48.958;9.330;2022-07-12T03:18:37;99116.59;;;13.91;94.49
41260;BME280;26993;48.958;9.330;2022-07-12T03:21:26;99116.66;;;13.74;95.40
41260;BME280;26993;48.958;9.330;2022-07-12T03:24:13;99118.38;;;13.79;94.83
41260;BME280;26993;48.958;9.330;2022-07-12T03:27:00;99116.63;;;13.78;94.88
41260;BME280;26993;48.958;9.330;2022-07-12T03:29:46;99119.28;;;13.68;95.82
41260;BME280;26993;48.958;9.330;2022-07-12T03:32:33;99120.09;;;13.79;95.46
41260;BME280;26993;48.958;9.330;2022-07-12T03:35:20;99133.09;;;13.63;94.88
41260;BME280;26993;48.958;9.330;2022-07-12T03:38:08;99128.75;;;13.72;93.95
41260;BME280;26993;48.958;9.330;2022-07-12T03:40:55;99135.66;;;13.73;94.17
41260;BME280;26993;48.958;9.330;2022-07-12T03:43:41;99137.44;;;13.57;95.22
41260;BME280;26993;48.958;9.330;2022-07-12T03:46:28;99139.09;;;13.73;93.81
41260;BME280;26993;48.958;9.330;2022-07-12T03:49:15;99146.84;;;13.79;93.08
41260;BME280;26993;48.958;9.330;2022-07-12T03:52:02;99146.03;;;13.67;93.68
41260;BME280;26993;48.958;9.330;2022-07-12T03:54:50;99147.84;;;13.47;94.93
41260;BME280;26993;48.958;9.330;2022-07-12T03:57:37;99156.44;;;13.48;95.71
41260;BME280;26993;48.958;9.330;2022-07-12T04:00:24;99156.44;;;13.48;94.94
41260;BME280;26993;48.958;9.330;2022-07-12T04:03:11;99166.78;;;13.57;94.02
41260;BME280;26993;48.958;9.330;2022-07-12T04:05:58;99162.47;;;13.48;94.10
41260;BME280;26993;48.958;9.330;2022-07-12T04:08:44;99162.47;;;13.30;95.72
41260;BME280;26993;48.958;9.330;2022-07-12T04:11:32;99166.81;;;13.39;95.95
41260;BME280;26993;48.958;9.330;2022-07-12T04:14:19;99167.63;;;13.53;95.33
41260;BME280;26993;48.958;9.330;2022-07-12T04:17:06;99163.31;;;13.61;94.55
41260;BME280;26993;48.958;9.330;2022-07-12T04:19:53;99166.75;;;13.60;95.04
41260;BME280;26993;48.958;9.330;2022-07-12T04:22:40;99164.16;;;13.68;95.16
41260;BME280;26993;48.958;9.330;2022-07-12T04:25:26;99167.53;;;13.89;94.60
41260;BME280;26993;48.958;9.330;2022-07-12T04:28:14;99158.88;;;13.98;94.47
41260;BME280;26993;48.958;9.330;2022-07-12T04:31:01;99163.94;;;14.19;92.66
41260;BME280;26993;48.958;9.330;2022-07-12T04:33:48;99158.81;;;14.16;92.36
41260;BME280;26993;48.958;9.330;2022-07-12T04:36:35;99160.50;;;14.22;91.89
41260;BME280;26993;48.958;9.330;2022-07-12T04:39:22;99169.09;;;14.28;92.03
41260;BME280;26993;48.958;9.330;2022-07-12T04:42:09;99166.50;;;14.32;91.79
41260;BME280;26993;48.958;9.330;2022-07-12T04:44:57;99169.13;;;14.24;91.84
41260;BME280;26993;48.958;9.330;2022-07-12T04:47:43;99164.84;;;14.18;92.13
41260;BME280;26993;48.958;9.330;2022-07-12T04:50:30;99162.25;;;14.17;92.29
41260;BME280;26993;48.958;9.330;2022-07-12T04:53:17;99164.81;;;14.20;92.33
41260;BME280;26993;48.958;9.330;2022-07-12T04:56:04;99175.13;;;14.35;91.40
41260;BME280;26993;48.958;9.330;2022-07-12T04:58:51;99169.06;;;14.33;91.65
41260;BME280;26993;48.958;9.330;2022-07-12T05:01:39;99172.44;;;14.49;91.94
41260;BME280;26993;48.958;9.330;2022-07-12T05:04:26;99165.44;;;14.62;91.37
41260;BME280;26993;48.958;9.330;2022-07-12T05:07:13;99167.19;;;14.62;91.89
41260;BME280;26993;48.958;9.330;2022-07-12T05:09:59;99169.75;;;14.65;91.72
41260;BME280;26993;48.958;9.330;2022-07-12T05:12:46;99176.59;;;14.81;91.44
41260;BME280;26993;48.958;9.330;2022-07-12T05:15:33;99173.88;;;14.97;91.52
41260;BME280;26993;48.958;9.330;2022-07-12T05:18:21;99171.94;;;15.20;90.45
41260;BME280;26993;48.958;9.330;2022-07-12T05:21:08;99175.13;;;15.49;88.92
41260;BME280;26993;48.958;9.330;2022-07-12T05:23:54;99167.91;;;15.77;87.16
41260;BME280;26993;48.958;9.330;2022-07-12T05:26:41;99175.53;;;15.94;86.23
41260;BME280;26993;48.958;9.330;2022-07-12T05:29:28;99180.41;;;16.22;85.55
41260;BME280;26993;48.958;9.330;2022-07-12T05:32:15;99172.16;;;16.55;84.34
41260;BME280;26993;48.958;9.330;2022-07-12T05:35:04;99172.34;;;18.77;79.37
41260;BME280;26993;48.958;9.330;2022-07-12T05:37:51;99156.25;;;22.79;65.71
41260;BME280;26993;48.958;9.330;2022-07-12T05:40:37;99144.50;;;25.89;56.62
41260;BME280;26993;48.958;9.330;2022-07-12T05:43:24;99147.56;;;28.67;51.07
41260;BME280;26993;48.958;9.330;2022-07-12T05:46:11;99152.66;;;30.88;46.72
41260;BME280;26993;48.958;9.330;2022-07-12T05:48:58;99146.09;;;32.64;43.65
41260;BME280;26993;48.958;9.330;2022-07-12T05:51:46;99156.94;;;33.68;41.88
41260;BME280;26993;48.958;9.330;2022-07-12T05:54:50;99162.63;;;32.90;42.47
41260;BME280;26993;48.958;9.330;2022-07-12T05:57:36;99169.16;;;31.05;45.54
41260;BME280;26993;48.958;9.330;2022-07-12T06:00:23;99166.41;;;29.17;48.61
41260;BME280;26993;48.958;9.330;2022-07-12T06:03:10;99175.44;;;27.60;51.18
41260;BME280;26993;48.958;9.330;2022-07-12T06:05:58;99183.81;;;26.27;53.89
41260;BME280;26993;48.958;9.330;2022-07-12T06:08:47;99186.31;;;25.28;55.94
41260;BME280;26993;48.958;9.330;2022-07-12T06:11:33;99185.91;;;24.45;57.25
41260;BME280;26993;48.958;9.330;2022-07-12T06:14:20;99191.34;;;23.63;59.26
41260;BME280;26993;48.958;9.330;2022-07-12T06:17:07;99190.53;;;23.41;61.62
41260;BME280;26993;48.958;9.330;2022-07-12T06:19:54;99198.13;;;22.82;61.17
41260;BME280;26993;48.958;9.330;2022-07-12T06:22:41;99195.88;;;22.51;62.77
41260;BME280;26993;48.958;9.330;2022-07-12T06:25:29;99204.41;;;21.85;64.04
41260;BME280;26993;48.958;9.330;2022-07-12T06:28:15;99208.84;;;21.59;64.47
41260;BME280;26993;48.958;9.330;2022-07-12T06:31:02;99205.44;;;21.55;65.01
41260;BME280;26993;48.958;9.330;2022-07-12T06:33:49;99201.81;;;21.33;66.39
41260;BME280;26993;48.958;9.330;2022-07-12T06:36:35;99205.66;;;21.22;64.20
41260;BME280;26993;48.958;9.330;2022-07-12T06:39:22;99208.91;;;21.02;65.38
41260;BME280;26993;48.958;9.330;2022-07-12T06:42:10;99207.88;;;20.81;67.09
41260;BME280;26993;48.958;9.330;2022-07-12T06:44:57;99201.38;;;20.63;67.23
41260;BME280;26993;48.958;9.330;2022-07-12T06:47:44;99211.09;;;20.59;66.78
41260;BME280;26993;48.958;9.330;2022-07-12T06:50:31;99216.75;;;20.75;66.80
41260;BME280;26993;48.958;9.330;2022-07-12T06:53:17;99217.31;;;20.85;66.39
41260;BME280;26993;48.958;9.330;2022-07-12T06:56:06;99213.28;;;20.75;66.26
41260;BME280;26993;48.958;9.330;2022-07-12T06:58:54;99215.59;;;20.84;65.80
41260;BME280;26993;48.958;9.330;2022-07-12T07:01:41;99222.03;;;20.74;65.67
41260;BME280;26993;48.958;9.330;2022-07-12T07:04:28;99217.25;;;20.88;65.66
41260;BME280;26993;48.958;9.330;2022-07-12T07:07:14;99217.59;;;20.76;65.99
41260;BME280;26993;48.958;9.330;2022-07-12T07:10:01;99217.81;;;20.97;65.68
41260;BME280;26993;48.958;9.330;2022-07-12T07:12:48;99218.47;;;20.76;66.53
41260;BME280;26993;48.958;9.330;2022-07-12T07:15:39;99221.81;;;21.08;65.38
41260;BME280;26993;48.958;9.330;2022-07-12T07:18:25;99222.91;;;21.55;64.70
41260;BME280;26993;48.958;9.330;2022-07-12T07:21:12;99220.41;;;22.02;63.52
41260;BME280;26993;48.958;9.330;2022-07-12T07:23:59;99228.56;;;22.66;61.46
41260;BME280;26993;48.958;9.330;2022-07-12T07:26:46;99233.00;;;22.86;60.77
41260;BME280;26993;48.958;9.330;2022-07-12T07:29:32;99237.72;;;23.00;61.42
41260;BME280;26993;48.958;9.330;2022-07-12T07:32:38;99232.75;;;23.14;59.68
41260;BME280;26993;48.958;9.330;2022-07-12T07:35:25;99239.63;;;22.74;61.20
41260;BME280;26993;48.958;9.330;2022-07-12T07:38:11;99238.25;;;22.86;60.55
41260;BME280;26993;48.958;9.330;2022-07-12T07:40:58;99235.97;;;22.78;60.07
41260;BME280;26993;48.958;9.330;2022-07-12T07:43:45;99231.34;;;22.85;60.56
41260;BME280;26993;48.958;9.330;2022-07-12T07:46:32;99235.66;;;22.64;60.84
41260;BME280;26993;48.958;9.330;2022-07-12T07:49:20;99231.47;;;22.34;62.37
41260;BME280;26993;48.958;9.330;2022-07-12T07:52:07;99231.88;;;22.24;62.12
41260;BME280;26993;48.958;9.330;2022-07-12T07:54:54;99238.78;;;22.02;62.49
41260;BME280;26993;48.958;9.330;2022-07-12T07:57:41;99239.38;;;21.85;63.02
41260;BME280;26993;48.958;9.330;2022-07-12T08:00:28;99233.47;;;21.79;63.49
41260;BME280;26993;48.958;9.330;2022-07-12T08:03:15;99234.22;;;21.30;62.94
41260;BME280;26993;48.958;9.330;2022-07-12T08:06:03;99235.34;;;21.48;62.73
41260;BME280;26993;48.958;9.330;2022-07-12T08:08:50;99229.28;;;21.98;61.25
41260;BME280;26993;48.958;9.330;2022-07-12T08:11:37;99217.78;;;22.02;61.80
41260;BME280;26993;48.958;9.330;2022-07-12T08:14:24;99214.69;;;21.91;60.51
41260;BME280;26993;48.958;9.330;2022-07-12T08:17:10;99221.09;;;22.08;60.48
41260;BME280;26993;48.958;9.330;2022-07-12T08:19:57;99212.31;;;22.32;61.08
41260;BME280;26993;48.958;9.330;2022-07-12T08:22:46;99216.38;;;22.41;59.41
41260;BME280;26993;48.958;9.330;2022-07-12T08:25:32;99212.13;;;22.37;59.52
41260;BME280;26993;48.958;9.330;2022-07-12T08:28:19;99215.03;;;22.29;59.28
41260;BME280;26993;48.958;9.330;2022-07-12T08:31:06;99213.22;;;22.31;59.96
41260;BME280;26993;48.958;9.330;2022-07-12T08:33:53;99210.19;;;22.18;60.85
41260;BME280;26993;48.958;9.330;2022-07-12T08:36:39;99210.69;;;22.28;60.11
41260;BME280;26993;48.958;9.330;2022-07-12T08:39:27;99207.66;;;22.15;60.76
41260;BME280;26993;48.958;9.330;2022-07-12T08:42:16;99220.28;;;22.29;58.25
41260;BME280;26993;48.958;9.330;2022-07-12T08:45:04;99226.06;;;22.39;58.93
41260;BME280;26993;48.958;9.330;2022-07-12T08:47:51;99233.13;;;22.37;58.34
41260;BME280;26993;48.958;9.330;2022-07-12T08:50:38;99231.03;;;22.23;58.26
41260;BME280;26993;48.958;9.330;2022-07-12T08:53:25;99223.91;;;22.50;58.75
41260;BME280;26993;48.958;9.330;2022-07-12T08:56:31;99233.81;;;22.88;58.28
41260;BME280;26993;48.958;9.330;2022-07-12T08:59:19;99240.06;;;22.63;57.20
41260;BME280;26993;48.958;9.330;2022-07-12T09:02:06;99237.47;;;22.62;57.33
41260;BME280;26993;48.958;9.330;2022-07-12T09:05:05;99244.88;;;22.74;58.36
41260;BME280;26993;48.958;9.330;2022-07-12T09:08:01;99245.25;;;22.87;57.59
41260;BME280;26993;48.958;9.330;2022-07-12T09:10:55;99250.66;;;22.82;57.61
41260;BME280;26993;48.958;9.330;2022-07-12T09:13:49;99249.19;;;22.75;58.70
41260;BME280;26993;48.958;9.330;2022-07-12T09:16:36;99247.44;;;22.76;59.25
41260;BME280;26993;48.958;9.330;2022-07-12T09:19:23;99244.66;;;22.80;57.61
41260;BME280;26993;48.958;9.330;2022-07-12T09:22:14;99239.44;;;22.79;58.28
41260;BME280;26993;48.958;9.330;2022-07-12T09:25:08;99235.53;;;22.67;59.69
41260;BME280;26993;48.958;9.330;2022-07-12T09:27:56;99241.56;;;22.69;59.17
41260;BME280;26993;48.958;9.330;2022-07-12T09:30:49;99247.75;;;22.90;57.94
41260;BME280;26993;48.958;9.330;2022-07-12T09:33:39;99243.66;;;23.27;57.12
41260;BME280;26993;48.958;9.330;2022-07-12T09:36:56;99237.63;;;23.25;56.84
41260;BME280;26993;48.958;9.330;2022-07-12T09:39:43;99241.28;;;23.64;56.04
41260;BME280;26993;48.958;9.330;2022-07-12T09:42:30;99232.13;;;23.73;55.28
41260;BME280;26993;48.958;9.330;2022-07-12T09:45:17;99228.75;;;23.90;54.98
41260;BME280;26993;48.958;9.330;2022-07-12T09:48:07;99231.94;;;23.77;55.87
41260;BME280;26993;48.958;9.330;2022-07-12T09:50:56;99232.59;;;23.62;56.62
41260;BME280;26993;48.958;9.330;2022-07-12T09:53:44;99237.75;;;23.84;55.24
41260;BME280;26993;48.958;9.330;2022-07-12T09:56:35;99231.94;;;23.98;54.05
41260;BME280;26993;48.958;9.330;2022-07-12T09:59:28;99232.44;;;24.06;53.44
41260;BME280;26993;48.958;9.330;2022-07-12T10:02:15;99226.25;;;24.07;54.01
41260;BME280;26993;48.958;9.330;2022-07-12T10:05:05;99231.94;;;23.98;54.08
41260;BME280;26993;48.958;9.330;2022-07-12T10:07:53;99233.50;;;23.82;54.62
41260;BME280;26993;48.958;9.330;2022-07-12T10:10:41;99242.97;;;23.86;54.58
41260;BME280;26993;48.958;9.330;2022-07-12T10:13:29;99243.53;;;23.92;53.74
41260;BME280;26993;48.958;9.330;2022-07-12T10:16:24;99235.41;;;23.99;53.74
41260;BME280;26993;48.958;9.330;2022-07-12T10:19:22;99233.00;;;24.13;54.10
41260;BME280;26993;48.958;9.330;2022-07-12T10:22:20;99236.91;;;24.04;54.04
41260;BME280;26993;48.958;9.330;2022-07-12T10:25:27;99230.31;;;24.15;54.03
41260;BME280;26993;48.958;9.330;2022-07-12T10:28:15;99235.25;;;24.42;53.57
41260;BME280;26993;48.958;9.330;2022-07-12T10:31:04;99228.69;;;24.50;52.96
41260;BME280;26993;48.958;9.330;2022-07-12T10:34:08;99232.19;;;24.51;52.44
41260;BME280;26993;48.958;9.330;2022-07-12T10:37:09;99221.72;;;24.30;53.23
41260;BME280;26993;48.958;9.330;2022-07-12T10:40:15;99224.00;;;24.38;52.71
41260;BME280;26993;48.958;9.330;2022-07-12T10:43:17;99221.03;;;24.46;53.63
41260;BME280;26993;48.958;9.330;2022-07-12T10:46:17;99221.03;;;24.46;53.04
41260;BME280;26993;48.958;9.330;2022-07-12T10:49:24;99213.88;;;24.48;53.78
41260;BME280;26993;48.958;9.330;2022-07-12T10:52:16;99207.34;;;24.76;53.11
41260;BME280;26993;48.958;9.330;2022-07-12T10:55:18;99205.66;;;24.75;54.11
41260;BME280;26993;48.958;9.330;2022-07-12T10:58:05;99205.19;;;24.84;52.39
41260;BME280;26993;48.958;9.330;2022-07-12T11:00:51;99206.44;;;24.94;54.17
41260;BME280;26993;48.958;9.330;2022-07-12T11:03:43;99205.34;;;24.81;53.42
41260;BME280;26993;48.958;9.330;2022-07-12T11:06:30;99206.38;;;24.96;52.10
41260;BME280;26993;48.958;9.330;2022-07-12T11:09:19;99215.00;;;24.61;53.31
41260;BME280;26993;48.958;9.330;2022-07-12T11:12:08;99210.50;;;24.27;53.63
41260;BME280;26993;48.958;9.330;2022-07-12T11:14:55;99205.97;;;24.48;53.04
41260;BME280;26993;48.958;9.330;2022-07-12T11:17:42;99207.34;;;24.57;54.35
41260;BME280;26993;48.958;9.330;2022-07-12T11:20:29;99209.47;;;24.48;54.47
41260;BME280;26993;48.958;9.330;2022-07-12T11:23:16;99206.06;;;24.46;54.80
41260;BME280;26993;48.958;9.330;2022-07-12T11:26:03;99196.69;;;24.96;53.04
41260;BME280;26993;48.958;9.330;2022-07-12T11:28:57;99201.81;;;25.17;53.23
41260;BME280;26993;48.958;9.330;2022-07-12T11:31:44;99191.41;;;25.14;52.10
41260;BME280;26993;48.958;9.330;2022-07-12T11:34:31;99195.56;;;25.37;51.97
41260;BME280;26993;48.958;9.330;2022-07-12T11:37:18;99188.16;;;25.79;52.60
41260;BME280;26993;48.958;9.330;2022-07-12T11:40:06;99195.09;;;25.97;50.96
41260;BME280;26993;48.958;9.330;2022-07-12T11:42:54;99200.78;;;25.90;50.39
41260;BME280;26993;48.958;9.330;2022-07-12T11:45:44;99190.13;;;25.91;51.51
41260;BME280;26993;48.958;9.330;2022-07-12T11:48:31;99195.19;;;25.96;50.63
41260;BME280;26993;48.958;9.330;2022-07-12T11:51:19;99191.75;;;25.94;51.12
41260;BME280;26993;48.958;9.330;2022-07-12T11:54:05;99204.28;;;25.90;50.65
41260;BME280;26993;48.958;9.330;2022-07-12T11:57:05;99197.50;;;25.51;50.58
41260;BME280;26993;48.958;9.330;2022-07-12T11:59:51;99191.38;;;25.50;51.10
41260;BME280;26993;48.958;9.330;2022-07-12T12:02:39;99200.44;;;25.62;52.00
41260;BME280;26993;48.958;9.330;2022-07-12T12:05:26;99191.53;;;25.47;52.66
41260;BME280;26993;48.958;9.330;2022-07-12T12:08:14;99193.94;;;25.52;52.06
41260;BME280;26993;48.958;9.330;2022-07-12T12:11:01;99184.91;;;25.21;53.73
41260;BME280;26993;48.958;9.330;2022-07-12T12:13:55;99174.72;;;25.84;51.74
41260;BME280;26993;48.958;9.330;2022-07-12T12:16:43;99166.63;;;26.03;50.63
41260;BME280;26993;48.958;9.330;2022-07-12T12:19:31;99163.97;;;26.20;51.83
41260;BME280;26993;48.958;9.330;2022-07-12T12:22:28;99167.75;;;25.83;50.90
41260;BME280;26993;48.958;9.330;2022-07-12T12:25:15;99168.28;;;26.05;50.57
41260;BME280;26993;48.958;9.330;2022-07-12T12:28:03;99169.25;;;25.87;52.10
41260;BME280;26993;48.958;9.330;2022-07-12T12:30:52;99160.25;;;25.91;49.65
41260;BME280;26993;48.958;9.330;2022-07-12T12:33:40;99161.34;;;26.03;49.59
41260;BME280;26993;48.958;9.330;2022-07-12T12:36:36;99162.63;;;25.62;50.52
41260;BME280;26993;48.958;9.330;2022-07-12T12:39:29;99149.53;;;25.94;50.08
41260;BME280;26993;48.958;9.330;2022-07-12T12:42:23;99151.66;;;26.03;49.55
41260;BME280;26993;48.958;9.330;2022-07-12T12:45:20;99156.59;;;25.93;50.04
41260;BME280;26993;48.958;9.330;2022-07-12T12:48:07;99164.94;;;26.35;51.87
41260;BME280;26993;48.958;9.330;2022-07-12T12:50:54;99156.28;;;26.64;49.12
41260;BME280;26993;48.958;9.330;2022-07-12T12:53:55;99153.88;;;26.91;48.95
41260;BME280;26993;48.958;9.330;2022-07-12T12:56:43;99152.25;;;27.19;48.68
41260;BME280;26993;48.958;9.330;2022-07-12T12:59:30;99129.34;;;27.34;48.26
41260;BME280;26993;48.958;9.330;2022-07-12T13:02:16;99142.72;;;26.86;48.09
41260;BME280;26993;48.958;9.330;2022-07-12T13:05:05;99143.00;;;26.81;49.37
41260;BME280;26993;48.958;9.330;2022-07-12T13:07:53;99143.25;;;27.07;48.44
41260;BME280;26993;48.958;9.330;2022-07-12T13:10:43;99140.44;;;27.10;48.67
41260;BME280;26993;48.958;9.330;2022-07-12T13:13:30;99148.16;;;26.99;48.58
41260;BME280;26993;48.958;9.330;2022-07-12T13:16:16;99144.88;;;26.79;50.75
41260;BME280;26993;48.958;9.330;2022-07-12T13:19:03;99141.34;;;27.25;48.29
41260;BME280;26993;48.958;9.330;2022-07-12T13:21:50;99135.09;;;27.40;46.93
41260;BME280;26993;48.958;9.330;2022-07-12T13:24:37;99147.06;;;27.17;49.68
41260;BME280;26993;48.958;9.330;2022-07-12T13:27:25;99152.63;;;27.13;49.08
41260;BME280;26993;48.958;9.330;2022-07-12T13:30:14;99155.38;;;26.81;47.89
41260;BME280;26993;48.958;9.330;2022-07-12T13:33:01;99155.13;;;26.53;48.58
41260;BME280;26993;48.958;9.330;2022-07-12T13:35:48;99145.63;;;26.81;48.24
41260;BME280;26993;48.958;9.330;2022-07-12T13:38:35;99147.34;;;27.13;49.28
41260;BME280;26993;48.958;9.330;2022-07-12T13:41:21;99146.59;;;27.55;46.91
41260;BME280;26993;48.958;9.330;2022-07-12T13:44:10;99138.16;;;27.49;48.19
41260;BME280;26993;48.958;9.330;2022-07-12T13:46:56;99147.75;;;27.66;47.30
41260;BME280;26993;48.958;9.330;2022-07-12T13:49:43;99137.59;;;27.73;47.81
41260;BME280;26993;48.958;9.330;2022-07-12T13:52:30;99139.50;;;27.85;46.78
41260;BME280;26993;48.958;9.330;2022-07-12T13:55:17;99144.78;;;27.99;47.07
41260;BME280;26993;48.958;9.330;2022-07-12T13:58:06;99139.50;;;27.70;46.29
41260;BME280;26993;48.958;9.330;2022-07-12T14:00:54;99152.16;;;27.51;47.52
41260;BME280;26993;48.958;9.330;2022-07-12T14:03:41;99143.97;;;27.25;47.21
41260;BME280;26993;48.958;9.330;2022-07-12T14:06:28;99139.97;;;27.63;47.36
41260;BME280;26993;48.958;9.330;2022-07-12T14:09:16;99131.53;;;27.70;45.42
41260;BME280;26993;48.958;9.330;2022-07-12T14:12:03;99131.53;;;27.56;45.92
41260;BME280;26993;48.958;9.330;2022-07-12T14:14:50;99128.19;;;27.38;47.15
41260;BME280;26993;48.958;9.330;2022-07-12T14:17:55;99138.69;;;27.25;48.04
41260;BME280;26993;48.958;9.330;2022-07-12T14:20:44;99127.56;;;27.49;47.42
41260;BME280;26993;48.958;9.330;2022-07-12T14:23:30;99124.59;;;27.69;45.60
41260;BME280;26993;48.958;9.330;2022-07-12T14:26:17;99118.03;;;27.61;45.50
41260;BME280;26993;48.958;9.330;2022-07-12T14:29:04;99127.69;;;27.47;45.73
41260;BME280;26993;48.958;9.330;2022-07-12T14:31:51;99139.63;;;27.24;45.77
41260;BME280;26993;48.958;9.330;2022-07-12T14:34:39;99135.16;;;27.10;45.71
41260;BME280;26993;48.958;9.330;2022-07-12T14:37:26;99129.44;;;26.71;45.73
41260;BME280;26993;48.958;9.330;2022-07-12T14:40:13;99139.47;;;26.97;46.10
41260;BME280;26993;48.958;9.330;2022-07-12T14:43:00;99129.97;;;27.08;46.00
41260;BME280;26993;48.958;9.330;2022-07-12T14:45:46;99126.84;;;27.16;45.64
41260;BME280;26993;48.958;9.330;2022-07-12T14:48:33;99123.56;;;27.27;46.29
41260;BME280;26993;48.958;9.330;2022-07-12T14:51:22;99122.00;;;27.68;45.01